Time;durP1;ratioP1;P1;durP2;ratioP2;P2;SDS_P1;SDS_P2;PMS_P1;PMS_P2;Temp;Humidity;BMP_temperature;BMP_pressure;BME280_temperature;BME280_humidity;BME280_pressure;Samples;Min_cycle;Max_cycle;Signal;HPM_P1;HPM_P2
2023/09/08 00:00:21;;;;;;;6.90;4.87;;;18.70;95.40;;;;;;4990909;28;20482;-64
2023/09/08 00:02:47;;;;;;;4.73;4.23;;;18.60;95.60;;;;;;4987782;28;20485;-65
2023/09/08 00:05:14;;;;;;;7.07;4.27;;;18.60;95.70;;;;;;4990868;28;20473;-65
2023/09/08 00:07:42;;;;;;;6.83;4.57;;;18.60;95.40;;;;;;4990527;28;20482;-65
2023/09/08 00:10:10;;;;;;;9.80;5.03;;;18.60;95.60;;;;;;4991291;28;20490;-64
2023/09/08 00:12:38;;;;;;;7.50;4.80;;;18.50;95.60;;;;;;4981171;28;20500;-64
2023/09/08 00:15:07;;;;;;;6.53;5.20;;;18.50;95.70;;;;;;5003169;28;21006;-65
2023/09/08 00:17:34;;;;;;;6.80;5.27;;;18.40;95.90;;;;;;4981404;28;20495;-65
2023/09/08 00:20:01;;;;;;;5.83;4.67;;;18.30;95.80;;;;;;4988371;28;20481;-65
2023/09/08 00:22:27;;;;;;;6.33;5.00;;;18.30;95.60;;;;;;4981882;28;20497;-65
2023/09/08 00:24:55;;;;;;;13.40;5.13;;;18.20;95.70;;;;;;4987001;28;20501;-64
2023/09/08 00:27:21;;;;;;;6.60;4.60;;;18.20;95.70;;;;;;5002514;28;20573;-65
2023/09/08 00:29:49;;;;;;;4.83;4.30;;;18.20;95.70;;;;;;4979275;28;20859;-65
2023/09/08 00:32:17;;;;;;;8.07;4.17;;;18.20;95.70;;;;;;4995351;28;20485;-64
2023/09/08 00:34:43;;;;;;;6.90;4.83;;;18.20;95.80;;;;;;4998345;28;20492;-65
2023/09/08 00:37:10;;;;;;;6.67;4.90;;;18.20;95.60;;;;;;4991145;28;21012;-64
2023/09/08 00:39:38;;;;;;;5.67;4.27;;;18.20;95.60;;;;;;4974786;28;20874;-64
2023/09/08 00:42:06;;;;;;;4.63;4.23;;;18.20;95.80;;;;;;4999506;28;20503;-64
2023/09/08 00:44:33;;;;;;;7.57;4.70;;;18.20;95.90;;;;;;4988061;28;20573;-64
2023/09/08 00:47:01;;;;;;;8.50;3.90;;;18.10;95.90;;;;;;5012372;28;20496;-64
2023/09/08 00:49:28;;;;;;;8.33;5.57;;;18.00;95.60;;;;;;4987951;28;20475;-64
2023/09/08 00:51:55;;;;;;;6.30;4.90;;;18.10;95.70;;;;;;5001533;28;20560;-62
2023/09/08 00:54:22;;;;;;;6.07;4.40;;;18.00;95.60;;;;;;5000457;28;20471;-62
2023/09/08 00:56:55;;;;;;;7.17;5.40;;;18.00;95.60;;;;;;4993623;28;20485;-62
2023/09/08 00:59:22;;;;;;;6.63;4.60;;;18.00;95.90;;;;;;4988825;28;20478;-62
2023/09/08 01:01:49;;;;;;;5.90;5.07;;;18.00;96.00;;;;;;4983101;28;21091;-62
2023/09/08 01:04:17;;;;;;;12.07;4.90;;;18.00;95.80;;;;;;4986362;28;20480;-62
2023/09/08 01:06:46;;;;;;;6.87;4.40;;;18.00;96.00;;;;;;5005285;28;20752;-61
2023/09/08 01:09:13;;;;;;;5.77;4.43;;;17.90;96.10;;;;;;4984178;28;20873;-63
2023/09/08 01:11:40;;;;;;;4.30;3.90;;;17.80;95.70;;;;;;4999618;28;20492;-62
2023/09/08 01:14:07;;;;;;;5.00;4.50;;;17.90;95.90;;;;;;4996732;28;20938;-62
2023/09/08 01:16:34;;;;;;;4.60;4.20;;;17.80;95.80;;;;;;5002878;28;20508;-62
2023/09/08 01:19:01;;;;;;;6.10;4.90;;;17.80;95.70;;;;;;4993583;28;20481;-62
2023/09/08 01:21:53;;;;;;;6.30;4.30;;;17.70;95.70;;;;;;4984801;28;20493;-61
2023/09/08 01:24:46;;;;;;;4.63;4.03;;;17.70;96.10;;;;;;4974492;28;20489;-62
2023/09/08 01:27:16;;;;;;;3.97;3.53;;;17.70;95.70;;;;;;4980672;28;20998;-63
2023/09/08 01:29:45;;;;;;;5.20;4.50;;;17.60;95.60;;;;;;4983210;28;20480;-62
2023/09/08 01:32:12;;;;;;;6.20;4.27;;;17.60;95.70;;;;;;4996300;28;20466;-62
2023/09/08 01:34:40;;;;;;;5.97;5.00;;;17.60;95.70;;;;;;4992540;28;20486;-62
2023/09/08 01:37:09;;;;;;;4.80;4.20;;;17.50;95.80;;;;;;4996149;28;20488;-62
2023/09/08 01:39:36;;;;;;;5.90;4.20;;;17.50;95.80;;;;;;4991820;28;20493;-62
2023/09/08 01:42:03;;;;;;;4.43;4.03;;;17.50;96.10;;;;;;4994452;28;20496;-62
2023/09/08 01:44:31;;;;;;;6.33;4.43;;;17.50;96.00;;;;;;4984975;28;20493;-62
2023/09/08 01:46:58;;;;;;;6.87;4.93;;;17.50;95.80;;;;;;4994231;28;20480;-62
2023/09/08 01:49:25;;;;;;;6.83;4.97;;;17.50;95.80;;;;;;4986813;28;20482;-63
2023/09/08 01:51:53;;;;;;;6.10;4.70;;;17.50;95.90;;;;;;4993765;28;20474;-63
2023/09/08 01:54:19;;;;;;;4.50;3.47;;;17.50;95.80;;;;;;4988322;28;20485;-63
2023/09/08 01:56:46;;;;;;;6.00;5.00;;;17.50;95.90;;;;;;5001901;28;20484;-63
2023/09/08 01:59:13;;;;;;;5.30;3.67;;;17.40;95.70;;;;;;4994964;28;20976;-62
2023/09/08 02:01:41;;;;;;;6.10;3.70;;;17.30;95.80;;;;;;4989413;28;20481;-64
2023/09/08 02:04:08;;;;;;;5.87;3.87;;;17.20;96.00;;;;;;4983445;28;20988;-64
2023/09/08 02:06:35;;;;;;;6.23;4.53;;;17.20;96.40;;;;;;5010543;28;20857;-64
2023/09/08 02:09:02;;;;;;;6.07;4.43;;;17.20;96.80;;;;;;4991910;28;20482;-65
2023/09/08 02:11:28;;;;;;;5.40;4.90;;;17.20;96.80;;;;;;4985426;28;20490;-65
2023/09/08 02:13:55;;;;;;;5.23;4.20;;;17.20;96.40;;;;;;4988184;28;20486;-65
2023/09/08 02:16:22;;;;;;;5.50;3.67;;;17.20;96.20;;;;;;4981184;28;20486;-65
2023/09/08 02:18:51;;;;;;;4.07;3.67;;;17.30;96.10;;;;;;4991189;28;20488;-64
2023/09/08 02:21:18;;;;;;;4.97;4.17;;;17.20;96.00;;;;;;4997792;28;20835;-65
2023/09/08 02:23:45;;;;;;;5.73;4.23;;;17.10;96.00;;;;;;4995312;28;20856;-65
2023/09/08 02:26:11;;;;;;;6.73;4.60;;;17.00;96.80;;;;;;4990081;28;20937;-65
2023/09/08 02:28:38;;;;;;;5.33;4.30;;;16.90;97.40;;;;;;4988474;28;20486;-64
2023/09/08 02:31:05;;;;;;;5.97;3.83;;;17.00;97.20;;;;;;4979845;28;20835;-64
2023/09/08 02:33:32;;;;;;;6.87;3.90;;;17.00;96.90;;;;;;4981368;28;20568;-64
2023/09/08 02:36:04;;;;;;;5.10;4.20;;;17.00;96.60;;;;;;5003758;28;20823;-64
2023/09/08 02:38:31;;;;;;;5.83;4.30;;;17.00;96.30;;;;;;4991193;28;20466;-65
2023/09/08 02:40:58;;;;;;;6.23;4.20;;;16.80;96.50;;;;;;4980913;28;20575;-64
2023/09/08 02:43:25;;;;;;;6.93;4.10;;;16.80;96.30;;;;;;4988680;28;20482;-64
2023/09/08 02:45:52;;;;;;;5.83;4.07;;;16.80;96.80;;;;;;4995255;28;21093;-65
2023/09/08 02:48:19;;;;;;;5.30;3.93;;;16.80;96.80;;;;;;5002068;28;20487;-65
2023/09/08 02:50:45;;;;;;;6.40;4.23;;;16.80;96.70;;;;;;4990580;28;20487;-64
2023/09/08 02:53:14;;;;;;;4.27;3.87;;;16.80;96.70;;;;;;4988615;28;20472;-64
2023/09/08 02:55:40;;;;;;;6.70;4.23;;;16.90;96.60;;;;;;5009624;28;20487;-64
2023/09/08 02:58:07;;;;;;;6.07;4.30;;;16.80;96.40;;;;;;4994409;28;20473;-64
2023/09/08 03:00:34;;;;;;;6.43;4.50;;;16.90;96.40;;;;;;4999957;28;20486;-64
2023/09/08 03:03:01;;;;;;;6.40;5.10;;;16.90;96.50;;;;;;4994270;28;20472;-64
2023/09/08 03:05:28;;;;;;;5.70;4.70;;;16.90;96.50;;;;;;4988317;28;20483;-64
2023/09/08 03:07:54;;;;;;;4.67;3.77;;;16.90;96.70;;;;;;4987915;28;20482;-64
2023/09/08 03:10:24;;;;;;;6.80;5.40;;;16.80;96.60;;;;;;4985786;28;20498;-64
2023/09/08 03:12:51;;;;;;;6.93;5.17;;;16.90;96.80;;;;;;4997655;28;20484;-65
2023/09/08 03:15:18;;;;;;;7.40;5.00;;;16.70;96.60;;;;;;4984112;28;20479;-65
2023/09/08 03:17:45;;;;;;;4.37;3.30;;;16.70;96.50;;;;;;4991400;28;21018;-65
2023/09/08 03:20:13;;;;;;;4.20;3.73;;;16.50;96.40;;;;;;4979015;28;20495;-65
2023/09/08 03:22:41;;;;;;;5.10;3.67;;;16.50;96.60;;;;;;4997989;28;20498;-65
2023/09/08 03:25:09;;;;;;;4.50;3.80;;;16.40;96.80;;;;;;5004040;28;20588;-64
2023/09/08 03:27:37;;;;;;;6.63;4.57;;;16.30;97.30;;;;;;4986867;28;20506;-65
2023/09/08 03:30:05;;;;;;;6.33;5.03;;;16.30;97.70;;;;;;4998899;28;20477;-65
2023/09/08 03:32:32;;;;;;;5.90;4.73;;;16.20;98.10;;;;;;4989369;28;20470;-64
2023/09/08 03:34:59;;;;;;;8.03;5.10;;;16.30;98.00;;;;;;4995257;28;20481;-64
2023/09/08 03:37:26;;;;;;;4.47;4.00;;;16.30;98.00;;;;;;4997389;28;20492;-65
2023/09/08 03:39:52;;;;;;;5.60;4.50;;;16.30;97.40;;;;;;4988620;28;20485;-64
2023/09/08 03:42:19;;;;;;;4.57;3.80;;;16.30;97.00;;;;;;4988697;28;20485;-64
2023/09/08 03:44:48;;;;;;;4.70;3.60;;;16.30;97.00;;;;;;4991032;28;20866;-65
2023/09/08 03:47:14;;;;;;;7.20;3.30;;;16.30;97.10;;;;;;4991919;28;20855;-65
2023/09/08 03:49:41;;;;;;;6.63;4.07;;;16.30;96.90;;;;;;4986849;28;20483;-64
2023/09/08 03:52:08;;;;;;;5.43;4.57;;;16.30;96.90;;;;;;4998412;28;20488;-64
2023/09/08 03:54:35;;;;;;;5.90;4.40;;;16.30;97.10;;;;;;4983658;28;20474;-64
2023/09/08 03:57:02;;;;;;;10.10;5.30;;;16.30;97.30;;;;;;4990923;28;20493;-65
2023/09/08 03:59:28;;;;;;;5.23;3.77;;;16.30;97.50;;;;;;4994554;28;20509;-64
2023/09/08 04:01:57;;;;;;;6.47;4.03;;;16.20;97.30;;;;;;4996377;28;20486;-64
2023/09/08 04:04:24;;;;;;;5.10;3.77;;;16.20;97.10;;;;;;4990364;28;20499;-65
2023/09/08 04:06:50;;;;;;;4.57;4.17;;;16.20;96.90;;;;;;5005040;28;20664;-65
2023/09/08 04:09:17;;;;;;;4.77;4.20;;;16.20;97.00;;;;;;4982632;28;20483;-64
2023/09/08 04:11:44;;;;;;;5.70;3.77;;;16.20;96.70;;;;;;4985984;28;20479;-61
2023/09/08 04:14:11;;;;;;;5.50;4.87;;;16.20;96.80;;;;;;4993003;28;20484;-63
2023/09/08 04:16:38;;;;;;;6.97;3.90;;;16.20;96.90;;;;;;4999438;28;20488;-62
2023/09/08 04:19:06;;;;;;;5.47;3.90;;;16.20;96.60;;;;;;4997222;28;20485;-62
2023/09/08 04:21:32;;;;;;;4.83;3.60;;;16.20;96.70;;;;;;4983169;28;20490;-62
2023/09/08 04:23:59;;;;;;;12.47;5.30;;;16.20;97.00;;;;;;4985697;28;20478;-62
2023/09/08 04:26:26;;;;;;;4.23;3.47;;;16.20;96.90;;;;;;4994747;28;20480;-62
2023/09/08 04:28:53;;;;;;;5.10;4.10;;;16.20;96.90;;;;;;4996102;28;20485;-62
2023/09/08 04:31:21;;;;;;;5.53;4.10;;;16.10;96.70;;;;;;4979928;28;20496;-65
2023/09/08 04:33:48;;;;;;;5.77;4.30;;;16.10;96.70;;;;;;5007715;28;20995;-64
2023/09/08 04:36:16;;;;;;;6.70;4.33;;;16.10;96.70;;;;;;4986687;28;20567;-64
2023/09/08 04:38:44;;;;;;;4.63;3.33;;;16.10;96.70;;;;;;4985405;28;21188;-65
2023/09/08 04:41:11;;;;;;;4.63;3.60;;;16.00;96.40;;;;;;4981802;28;20478;-64
2023/09/08 04:43:38;;;;;;;6.80;4.30;;;16.00;96.50;;;;;;5001827;28;20493;-64
2023/09/08 04:46:04;;;;;;;5.70;4.40;;;16.00;96.60;;;;;;5003759;28;20862;-65
2023/09/08 04:48:31;;;;;;;6.30;4.27;;;16.00;96.50;;;;;;5003075;28;20482;-64
2023/09/08 04:50:58;;;;;;;5.50;4.20;;;16.00;96.60;;;;;;4977721;28;20481;-65
2023/09/08 04:53:27;;;;;;;9.40;3.80;;;16.00;96.50;;;;;;4954312;28;20780;-65
2023/09/08 04:55:53;;;;;;;5.30;3.90;;;16.00;96.40;;;;;;4988318;28;20479;-65
2023/09/08 04:58:20;;;;;;;7.97;4.37;;;16.00;96.30;;;;;;4988479;28;20496;-65
2023/09/08 05:00:47;;;;;;;6.93;4.53;;;16.00;96.40;;;;;;4992105;28;20516;-65
2023/09/08 05:03:14;;;;;;;4.20;3.40;;;16.00;96.50;;;;;;4988974;28;20983;-65
2023/09/08 05:05:41;;;;;;;9.87;5.10;;;16.00;96.70;;;;;;4996150;28;20828;-64
2023/09/08 05:08:08;;;;;;;6.20;4.90;;;16.00;96.60;;;;;;5003152;28;20471;-64
2023/09/08 05:10:36;;;;;;;3.93;3.43;;;15.90;96.70;;;;;;4993562;28;20483;-65
2023/09/08 05:13:03;;;;;;;6.80;4.87;;;15.80;96.50;;;;;;4995350;28;20462;-65
2023/09/08 05:15:31;;;;;;;5.43;4.03;;;15.90;96.40;;;;;;4984679;28;20852;-65
2023/09/08 05:17:57;;;;;;;3.60;3.10;;;15.80;96.30;;;;;;4983127;28;20575;-65
2023/09/08 05:20:24;;;;;;;4.00;3.50;;;15.80;96.40;;;;;;4988244;28;20479;-65
2023/09/08 05:22:51;;;;;;;5.17;4.43;;;15.70;96.40;;;;;;5004833;28;20484;-62
2023/09/08 05:25:18;;;;;;;5.70;4.17;;;15.60;96.90;;;;;;4995031;28;20480;-63
2023/09/08 05:27:46;;;;;;;4.73;4.23;;;15.60;96.90;;;;;;4994686;28;20535;-62
2023/09/08 05:30:13;;;;;;;6.33;4.30;;;15.60;96.80;;;;;;4975454;28;20691;-62
2023/09/08 05:32:40;;;;;;;7.47;4.47;;;15.60;97.20;;;;;;4979157;28;20490;-62
2023/09/08 05:35:07;;;;;;;5.63;4.73;;;15.50;97.50;;;;;;4976164;28;20490;-62
2023/09/08 05:37:34;;;;;;;6.30;4.00;;;15.60;97.50;;;;;;5002241;28;20481;-62
2023/09/08 05:40:01;;;;;;;5.57;5.03;;;15.60;97.50;;;;;;5000245;28;20946;-63
2023/09/08 05:42:28;;;;;;;12.67;5.33;;;15.60;97.50;;;;;;4974895;28;20488;-63
2023/09/08 05:44:56;;;;;;;6.37;4.80;;;15.70;97.40;;;;;;4996868;28;20472;-63
2023/09/08 05:47:23;;;;;;;5.80;4.80;;;15.70;97.30;;;;;;4992547;28;20480;-62
2023/09/08 05:49:50;;;;;;;6.30;3.93;;;15.80;97.40;;;;;;4983483;28;20489;-63
2023/09/08 05:52:16;;;;;;;7.23;4.50;;;15.80;97.40;;;;;;4980408;28;20565;-63
2023/09/08 05:54:43;;;;;;;6.20;4.67;;;15.90;97.60;;;;;;4996662;28;20485;-62
2023/09/08 05:57:10;;;;;;;6.37;4.33;;;16.00;97.60;;;;;;4997921;28;20474;-62
2023/09/08 05:59:37;;;;;;;5.37;4.37;;;16.00;97.60;;;;;;4991553;28;20484;-62
2023/09/08 06:02:05;;;;;;;6.63;4.27;;;16.10;97.50;;;;;;5001182;28;20482;-61
2023/09/08 06:04:32;;;;;;;6.53;4.57;;;16.20;97.70;;;;;;4991546;28;20470;-62
2023/09/08 06:06:59;;;;;;;4.60;3.97;;;16.20;97.60;;;;;;4991487;28;20883;-62
2023/09/08 06:09:26;;;;;;;13.00;5.20;;;16.30;98.10;;;;;;4992600;28;20473;-61
2023/09/08 06:11:53;;;;;;;7.10;5.33;;;16.40;98.20;;;;;;4986296;28;20493;-62
2023/09/08 06:14:20;;;;;;;6.37;4.60;;;16.40;98.50;;;;;;4988041;28;20486;-62
2023/09/08 06:16:46;;;;;;;7.00;4.90;;;16.50;98.30;;;;;;5001388;28;20477;-62
2023/09/08 06:19:16;;;;;;;6.97;5.50;;;16.60;98.60;;;;;;4985787;28;20972;-62
2023/09/08 06:21:43;;;;;;;5.10;4.40;;;16.70;98.70;;;;;;4987487;28;20486;-62
2023/09/08 06:24:09;;;;;;;5.47;4.97;;;16.80;99.00;;;;;;4988866;28;20496;-62
2023/09/08 06:26:36;;;;;;;11.67;6.37;;;17.00;99.60;;;;;;4981197;28;20871;-62
2023/09/08 06:29:03;;;;;;;11.90;6.80;;;17.20;99.80;;;;;;4995911;28;20471;-62
2023/09/08 06:31:30;;;;;;;10.80;6.07;;;17.50;99.90;;;;;;4994349;28;20490;-64
2023/09/08 06:33:57;;;;;;;11.17;6.57;;;17.70;99.90;;;;;;4979955;28;20969;-63
2023/09/08 06:36:25;;;;;;;11.37;6.60;;;17.90;99.80;;;;;;4981253;28;21144;-64
2023/09/08 06:38:52;;;;;;;13.97;7.10;;;17.90;99.90;;;;;;5001228;28;20493;-64
2023/09/08 06:41:19;;;;;;;14.70;8.20;;;18.20;99.90;;;;;;4978384;28;21875;-64
2023/09/08 06:43:45;;;;;;;13.27;9.40;;;18.80;99.90;;;;;;5011779;28;20853;-64
2023/09/08 06:46:12;;;;;;;10.40;7.20;;;19.80;99.90;;;;;;5005070;28;21070;-64
2023/09/08 06:48:39;;;;;;;9.27;6.63;;;21.10;99.30;;;;;;4985622;28;21047;-65
2023/09/08 06:51:06;;;;;;;12.50;6.77;;;22.40;97.90;;;;;;4985029;28;20527;-62
2023/09/08 06:53:34;;;;;;;6.30;5.40;;;23.60;97.00;;;;;;4995511;28;20486;-63
2023/09/08 06:56:01;;;;;;;8.30;6.07;;;24.70;95.50;;;;;;4996208;28;21207;-63
2023/09/08 06:58:28;;;;;;;6.77;5.90;;;25.70;94.20;;;;;;4979026;28;21011;-63
2023/09/08 07:00:55;;;;;;;8.97;6.83;;;26.50;92.50;;;;;;4995851;28;20481;-64
2023/09/08 07:03:22;;;;;;;7.90;6.53;;;27.20;92.80;;;;;;4983001;28;20484;-63
2023/09/08 07:05:50;;;;;;;8.70;6.90;;;27.70;91.80;;;;;;4996082;28;20494;-64
2023/09/08 07:08:17;;;;;;;7.57;6.20;;;28.20;90.50;;;;;;4977809;28;20512;-63
2023/09/08 07:10:52;;;;;;;9.27;7.30;;;28.60;89.70;;;;;;4981687;28;20484;-63
2023/09/08 07:13:19;;;;;;;7.87;6.80;;;28.90;89.80;;;;;;4995120;28;21114;-64
2023/09/08 07:15:46;;;;;;;9.43;6.70;;;29.00;89.40;;;;;;4995058;28;20476;-64
2023/09/08 07:18:13;;;;;;;9.80;6.30;;;29.10;88.60;;;;;;5004929;28;20490;-64
2023/09/08 07:20:39;;;;;;;8.87;6.20;;;29.20;87.60;;;;;;4988447;28;20488;-64
2023/09/08 07:23:07;;;;;;;7.33;5.67;;;29.10;86.90;;;;;;4979267;28;20488;-63
2023/09/08 07:25:34;;;;;;;8.70;6.60;;;29.00;87.80;;;;;;5006655;28;20471;-64
2023/09/08 07:28:02;;;;;;;7.67;6.27;;;28.80;88.20;;;;;;4973021;28;21027;-64
2023/09/08 07:30:29;;;;;;;8.37;6.93;;;28.70;89.20;;;;;;5002349;28;20479;-64
2023/09/08 07:32:55;;;;;;;7.73;6.00;;;28.60;89.00;;;;;;4993380;28;20486;-63
2023/09/08 07:35:24;;;;;;;8.10;6.37;;;28.50;89.10;;;;;;4998094;28;20492;-64
2023/09/08 07:37:51;;;;;;;7.13;5.83;;;28.30;90.00;;;;;;5003043;28;20485;-64
2023/09/08 07:40:17;;;;;;;8.77;6.57;;;28.30;90.00;;;;;;4970785;28;20497;-64
2023/09/08 07:42:44;;;;;;;12.60;5.37;;;28.30;88.70;;;;;;4985191;28;20487;-64
2023/09/08 07:45:12;;;;;;;7.10;5.63;;;28.30;89.30;;;;;;4988315;28;20477;-64
2023/09/08 07:47:39;;;;;;;9.83;6.13;;;28.20;88.60;;;;;;4990769;28;20490;-64
2023/09/08 07:50:21;;;;;;;7.07;5.90;;;28.10;89.30;;;;;;4984354;28;20470;-64
2023/09/08 07:52:49;;;;;;;9.00;6.30;;;28.10;88.80;;;;;;4982950;28;21055;-64
2023/09/08 07:55:16;;;;;;;7.47;5.80;;;28.00;91.10;;;;;;4984242;28;20589;-64
2023/09/08 07:57:44;;;;;;;6.73;5.77;;;28.00;90.70;;;;;;4994849;28;20464;-64
2023/09/08 08:00:13;;;;;;;6.47;5.30;;;27.90;90.10;;;;;;4997253;28;20475;-64
2023/09/08 08:02:42;;;;;;;8.27;6.30;;;27.90;91.30;;;;;;4986225;28;20490;-65
2023/09/08 08:05:09;;;;;;;6.90;5.43;;;27.90;90.60;;;;;;4989539;28;20472;-65
2023/09/08 08:07:36;;;;;;;8.40;5.60;;;27.90;91.20;;;;;;4971118;28;21023;-65
2023/09/08 08:10:03;;;;;;;7.40;5.60;;;27.90;91.20;;;;;;4989853;28;20481;-65
2023/09/08 08:12:30;;;;;;;11.63;6.50;;;27.90;90.80;;;;;;4990739;28;20563;-66
2023/09/08 08:14:56;;;;;;;7.90;6.10;;;28.00;91.00;;;;;;4999060;28;20483;-66
2023/09/08 08:17:26;;;;;;;7.50;5.43;;;28.10;91.50;;;;;;4992943;28;20475;-66
2023/09/08 08:19:53;;;;;;;5.73;5.23;;;28.10;91.20;;;;;;4984646;28;21475;-66
2023/09/08 08:22:19;;;;;;;7.27;6.23;;;28.20;91.00;;;;;;4995899;28;20481;-65
2023/09/08 08:24:46;;;;;;;7.53;5.73;;;28.30;91.60;;;;;;4981219;28;20453;-65
2023/09/08 08:27:13;;;;;;;8.40;5.50;;;28.40;91.10;;;;;;4983853;28;20482;-65
2023/09/08 08:29:40;;;;;;;6.30;5.43;;;28.60;91.00;;;;;;4978404;28;20975;-66
2023/09/08 08:32:07;;;;;;;8.07;6.73;;;28.70;91.10;;;;;;4989071;28;20516;-66
2023/09/08 08:34:35;;;;;;;5.80;5.20;;;28.90;90.80;;;;;;4981981;28;20477;-65
2023/09/08 08:37:03;;;;;;;6.80;5.23;;;28.90;90.70;;;;;;5001689;28;20857;-66
2023/09/08 08:39:30;;;;;;;10.40;6.30;;;29.00;90.90;;;;;;5006625;28;20471;-66
2023/09/08 08:41:56;;;;;;;7.13;6.30;;;29.10;90.90;;;;;;4991401;28;20474;-66
2023/09/08 08:44:24;;;;;;;6.20;5.00;;;29.20;91.40;;;;;;4992154;28;20517;-66
2023/09/08 08:46:52;;;;;;;5.83;5.20;;;29.30;91.50;;;;;;4987387;28;20457;-66
2023/09/08 08:49:20;;;;;;;7.77;5.63;;;29.40;91.40;;;;;;5005138;28;20485;-66
2023/09/08 08:51:51;;;;;;;6.57;5.83;;;29.50;91.10;;;;;;4995136;28;20547;-66
2023/09/08 08:54:17;;;;;;;7.83;6.17;;;29.40;88.80;;;;;;4991126;28;20452;-66
2023/09/08 08:56:44;;;;;;;7.37;5.80;;;29.20;90.90;;;;;;4993750;28;20474;-66
2023/09/08 08:59:12;;;;;;;8.07;6.50;;;28.80;90.60;;;;;;4988015;28;20453;-65
2023/09/08 09:01:40;;;;;;;6.03;5.47;;;28.50;90.30;;;;;;4988345;28;20833;-65
2023/09/08 09:04:07;;;;;;;7.43;6.00;;;28.40;91.50;;;;;;4994572;28;20488;-65
2023/09/08 09:06:34;;;;;;;6.20;5.33;;;28.20;90.50;;;;;;5012684;28;20460;-65
2023/09/08 09:09:04;;;;;;;7.20;6.47;;;28.40;91.90;;;;;;4997077;28;20492;-66
2023/09/08 09:11:31;;;;;;;8.80;5.90;;;28.60;90.70;;;;;;4991701;28;20985;-63
2023/09/08 09:13:59;;;;;;;9.27;6.40;;;28.60;90.30;;;;;;4989100;28;20495;-63
2023/09/08 09:16:25;;;;;;;7.23;6.17;;;28.60;90.40;;;;;;5001017;28;20464;-63
2023/09/08 09:18:56;;;;;;;7.37;6.17;;;28.70;90.70;;;;;;4986099;28;20464;-63
2023/09/08 09:21:24;;;;;;;8.67;6.60;;;28.70;90.10;;;;;;4984164;28;20811;-63
2023/09/08 09:23:51;;;;;;;8.83;7.13;;;28.60;90.20;;;;;;4984892;28;20456;-64
2023/09/08 09:26:28;;;;;;;9.90;7.90;;;28.50;90.50;;;;;;4988765;28;20481;-64
2023/09/08 09:28:56;;;;;;;9.17;6.27;;;28.40;90.50;;;;;;4973335;28;21093;-64
2023/09/08 09:31:25;;;;;;;10.13;5.93;;;28.40;90.90;;;;;;4983082;28;20983;-63
2023/09/08 09:34:04;;;;;;;8.57;7.27;;;28.40;91.50;;;;;;4987092;28;20912;-64
2023/09/08 09:36:31;;;;;;;7.83;6.40;;;28.80;92.30;;;;;;4997852;28;20488;-64
2023/09/08 09:39:00;;;;;;;11.30;6.60;;;29.20;92.10;;;;;;4983968;28;21237;-64
2023/09/08 09:41:29;;;;;;;9.47;6.60;;;29.60;91.90;;;;;;4986085;28;20486;-64
2023/09/08 09:43:56;;;;;;;11.57;6.87;;;29.90;91.60;;;;;;5000460;28;20480;-64
2023/09/08 09:46:23;;;;;;;10.00;5.87;;;30.30;91.40;;;;;;5009304;28;20489;-64
2023/09/08 09:48:53;;;;;;;7.43;6.27;;;30.60;91.80;;;;;;4993788;28;20826;-64
2023/09/08 09:51:20;;;;;;;9.47;6.70;;;30.80;90.90;;;;;;4980495;28;20463;-64
2023/09/08 09:53:48;;;;;;;8.87;5.90;;;31.00;90.20;;;;;;4996701;28;20476;-64
2023/09/08 09:56:17;;;;;;;11.10;8.27;;;31.10;90.00;;;;;;4999623;28;20564;-64
2023/09/08 09:58:45;;;;;;;7.27;6.23;;;31.00;89.20;;;;;;4992023;28;20458;-64
2023/09/08 10:01:12;;;;;;;9.40;6.67;;;30.90;89.00;;;;;;4990341;28;20447;-64
2023/09/08 10:03:40;;;;;;;8.90;7.30;;;30.90;87.40;;;;;;5004926;28;20489;-64
2023/09/08 10:06:07;;;;;;;16.13;8.67;;;30.80;89.80;;;;;;4992557;28;20478;-64
2023/09/08 10:08:36;;;;;;;6.90;6.20;;;30.70;89.00;;;;;;4989296;28;20460;-63
2023/09/08 10:11:07;;;;;;;9.17;7.20;;;30.60;88.90;;;;;;4991667;28;20564;-64
2023/09/08 10:13:40;;;;;;;7.90;6.40;;;30.50;89.90;;;;;;4994463;28;21035;-64
2023/09/08 10:16:09;;;;;;;7.00;5.73;;;30.40;91.10;;;;;;4994757;28;20478;-64
2023/09/08 10:18:37;;;;;;;6.90;5.80;;;30.20;88.00;;;;;;4999971;28;20493;-64
2023/09/08 10:21:05;;;;;;;10.27;6.20;;;30.10;88.60;;;;;;4984394;28;21001;-66
2023/09/08 10:23:37;;;;;;;10.33;6.83;;;30.30;90.70;;;;;;4993944;28;20820;-67
2023/09/08 10:26:10;;;;;;;8.63;6.53;;;30.40;90.30;;;;;;4987881;28;20855;-65
2023/09/08 10:28:37;;;;;;;5.93;5.43;;;30.30;89.90;;;;;;4991956;28;20535;-66
2023/09/08 10:31:05;;;;;;;10.10;7.43;;;30.40;91.10;;;;;;4997239;28;20481;-66
2023/09/08 10:33:34;;;;;;;7.57;6.50;;;30.60;90.80;;;;;;4998900;28;20483;-66
2023/09/08 10:36:02;;;;;;;6.67;5.97;;;30.70;89.30;;;;;;4991953;28;20493;-66
2023/09/08 10:38:34;;;;;;;7.40;6.70;;;30.90;90.60;;;;;;5000589;28;20460;-66
2023/09/08 10:41:28;;;;;;;7.50;6.70;;;31.10;90.70;;;;;;4986920;28;21223;-67
2023/09/08 10:43:56;;;;;;;6.93;6.20;;;31.30;90.60;;;;;;4980121;28;20485;-67
2023/09/08 10:46:24;;;;;;;6.57;5.97;;;31.50;90.00;;;;;;5007897;28;20448;-67
2023/09/08 10:48:54;;;;;;;7.57;6.73;;;31.70;89.40;;;;;;4991759;28;20463;-66
2023/09/08 10:51:22;;;;;;;7.17;6.47;;;31.90;90.00;;;;;;4984901;28;20452;-67
2023/09/08 10:53:50;;;;;;;7.57;6.47;;;31.90;89.00;;;;;;4983767;28;20553;-67
2023/09/08 10:56:18;;;;;;;7.33;6.33;;;31.80;90.20;;;;;;5006741;28;20451;-67
2023/09/08 10:58:49;;;;;;;8.80;6.77;;;31.40;88.90;;;;;;4981957;28;20451;-67
2023/09/08 11:01:18;;;;;;;7.23;6.50;;;31.20;87.50;;;;;;4995962;28;20892;-67
2023/09/08 11:03:48;;;;;;;6.90;5.80;;;31.20;87.70;;;;;;4988414;28;20493;-67
2023/09/08 11:06:18;;;;;;;6.87;6.10;;;31.30;89.90;;;;;;4997624;28;20563;-67
2023/09/08 11:08:46;;;;;;;7.63;6.70;;;31.40;89.20;;;;;;4991937;28;20461;-67
2023/09/08 11:11:15;;;;;;;9.33;7.30;;;31.60;90.60;;;;;;4993702;28;20481;-64
2023/09/08 11:13:45;;;;;;;7.60;6.10;;;31.80;90.70;;;;;;4991297;28;20478;-65
2023/09/08 11:16:12;;;;;;;6.53;5.43;;;32.00;89.70;;;;;;4991534;28;20493;-64
2023/09/08 11:18:40;;;;;;;6.97;5.80;;;32.30;90.00;;;;;;4992210;28;20743;-65
2023/09/08 11:21:09;;;;;;;7.03;5.90;;;32.60;88.80;;;;;;4976188;28;20769;-67
2023/09/08 11:23:37;;;;;;;8.00;6.80;;;32.80;89.40;;;;;;4986120;28;20474;-68
2023/09/08 11:26:05;;;;;;;8.53;5.37;;;33.00;89.90;;;;;;4992390;28;20477;-68
2023/09/08 11:28:33;;;;;;;6.63;6.03;;;33.30;89.50;;;;;;4994351;28;20580;-67
2023/09/08 11:31:00;;;;;;;6.23;5.43;;;33.30;88.00;;;;;;4989633;28;20585;-68
2023/09/08 11:33:27;;;;;;;8.40;6.40;;;33.50;85.00;;;;;;4989871;28;20461;-65
2023/09/08 11:35:54;;;;;;;7.90;6.57;;;33.60;86.80;;;;;;4986661;28;20481;-65
2023/09/08 11:38:27;;;;;;;7.13;6.20;;;33.60;83.80;;;;;;4999496;28;20804;-65
2023/09/08 11:40:57;;;;;;;7.50;6.80;;;33.50;83.30;;;;;;4981276;28;20452;-65
2023/09/08 11:43:24;;;;;;;8.60;6.30;;;33.50;85.20;;;;;;4987820;28;20477;-65
2023/09/08 11:45:51;;;;;;;6.03;5.43;;;33.50;82.60;;;;;;4972617;28;20462;-65
2023/09/08 11:48:18;;;;;;;7.10;6.40;;;33.70;86.50;;;;;;4992565;28;20650;-65
2023/09/08 11:50:45;;;;;;;6.80;6.20;;;33.60;82.40;;;;;;4985231;28;20465;-65
2023/09/08 11:53:12;;;;;;;8.77;6.20;;;33.50;82.10;;;;;;5003306;28;20486;-65
2023/09/08 11:55:39;;;;;;;7.90;7.10;;;33.50;86.20;;;;;;4986379;28;20999;-65
2023/09/08 11:58:09;;;;;;;6.57;5.97;;;33.10;84.10;;;;;;4996571;28;20921;-65
2023/09/08 12:00:37;;;;;;;7.33;5.53;;;33.10;81.80;;;;;;4981725;28;20877;-65
2023/09/08 12:03:11;;;;;;;6.90;5.93;;;33.00;85.10;;;;;;4997984;28;20469;-65
2023/09/08 12:05:39;;;;;;;7.07;6.37;;;32.90;85.10;;;;;;4987431;28;20482;-65
2023/09/08 12:08:06;;;;;;;6.40;5.77;;;33.10;85.40;;;;;;5001830;28;20486;-66
2023/09/08 12:10:39;;;;;;;6.40;5.80;;;33.50;83.50;;;;;;4995498;28;20478;-65
2023/09/08 12:13:06;;;;;;;6.83;5.60;;;33.50;84.60;;;;;;4983466;28;20977;-65
2023/09/08 12:15:36;;;;;;;6.63;5.53;;;33.60;85.00;;;;;;4994158;28;20481;-65
2023/09/08 12:18:04;;;;;;;8.33;5.30;;;33.90;85.40;;;;;;4991963;28;20480;-66
2023/09/08 12:20:31;;;;;;;8.10;6.30;;;34.20;84.30;;;;;;4990216;28;20496;-66
2023/09/08 12:23:01;;;;;;;5.67;5.07;;;34.50;85.90;;;;;;4989608;28;20488;-66
2023/09/08 12:25:31;;;;;;;7.00;5.17;;;34.40;82.80;;;;;;4996839;28;20457;-66
2023/09/08 12:27:58;;;;;;;6.20;5.57;;;34.40;84.30;;;;;;4987436;28;20528;-65
2023/09/08 12:30:29;;;;;;;5.63;5.10;;;34.20;79.20;;;;;;4986390;28;20482;-66
2023/09/08 12:32:59;;;;;;;5.53;5.03;;;34.20;80.20;;;;;;4979588;28;20482;-65
2023/09/08 12:35:27;;;;;;;5.80;5.27;;;34.10;77.40;;;;;;4996989;28;20477;-65
2023/09/08 12:37:59;;;;;;;8.23;5.07;;;33.90;78.40;;;;;;4995274;28;20513;-65
2023/09/08 12:40:27;;;;;;;5.63;5.13;;;33.80;78.00;;;;;;4975883;28;20488;-66
2023/09/08 12:42:54;;;;;;;6.50;5.20;;;33.50;78.40;;;;;;4988009;28;20544;-66
2023/09/08 12:45:21;;;;;;;8.97;5.67;;;33.60;79.80;;;;;;4989960;28;20508;-65
2023/09/08 12:47:48;;;;;;;6.60;6.00;;;33.70;79.70;;;;;;5001185;28;20474;-66